Time;durP1;ratioP1;P1;durP2;ratioP2;P2;SDS_P1;SDS_P2;PMS_P1;PMS_P2;Temp;Humidity;BMP_temperature;BMP_pressure;BME280_temperature;BME280_humidity;BME280_pressure;Samples;Min_cycle;Max_cycle;Signal;HPM_P1;HPM_P2
2022/08/14 00:00:44;;;;;;;;;;;;;;;23.41;79.49;96407.98;615191;230;66660;-61
2022/08/14 00:03:22;;;;;;;;;;;;;;;23.41;79.47;96402.61;615190;230;65687;-62
2022/08/14 00:05:50;;;;;;;;;;;;;;;23.40;79.48;96393.75;610412;230;64467;-63
2022/08/14 00:08:18;;;;;;;;;;;;;;;23.41;79.48;96389.20;615138;230;66731;-68
2022/08/14 00:10:45;;;;;;;;;;;;;;;23.40;79.49;96393.75;615196;230;64969;-68
2022/08/14 00:13:14;;;;;;;;;;;;;;;23.41;79.51;96394.56;615208;230;67162;-68
2022/08/14 00:15:43;;;;;;;;;;;;;;;23.40;79.54;96398.33;615175;230;66658;-68
2022/08/14 00:18:11;;;;;;;;;;;;;;;23.40;79.52;96398.33;615202;229;62825;-68
2022/08/14 00:20:40;;;;;;;;;;;;;;;23.41;79.53;96405.30;615106;230;66805;-68
2022/08/14 00:23:09;;;;;;;;;;;;;;;23.40;79.54;96395.64;615249;230;66841;-67
2022/08/14 00:25:37;;;;;;;;;;;;;;;23.40;79.52;96392.96;615228;230;62733;-68
2022/08/14 00:28:04;;;;;;;;;;;;;;;23.40;79.55;96384.92;615228;230;64538;-68
2022/08/14 00:30:32;;;;;;;;;;;;;;;23.40;79.56;96382.23;615233;230;66795;-68
2022/08/14 00:32:59;;;;;;;;;;;;;;;23.40;79.57;96379.55;615189;230;62676;-67
2022/08/14 00:35:27;;;;;;;;;;;;;;;23.39;79.59;96377.98;615193;230;67026;-68
2022/08/14 00:37:58;;;;;;;;;;;;;;;23.39;79.60;96384.12;615231;230;66505;-68
2022/08/14 00:40:25;;;;;;;;;;;;;;;23.39;79.57;96381.45;615220;230;62735;-68
2022/08/14 00:42:53;;;;;;;;;;;;;;;23.40;79.57;96374.19;615232;230;64533;-68
2022/08/14 00:45:20;;;;;;;;;;;;;;;23.40;79.56;96376.88;615220;230;66974;-68
2022/08/14 00:47:48;;;;;;;;;;;;;;;23.40;79.55;96363.47;615179;230;65135;-67
2022/08/14 00:50:18;;;;;;;;;;;;;;;23.39;79.53;96365.36;615213;230;66739;-68
2022/08/14 00:52:46;;;;;;;;;;;;;;;23.39;79.52;96353.84;615230;230;66810;-68
2022/08/14 00:55:14;;;;;;;;;;;;;;;23.39;79.57;96357.31;615166;230;64963;-69
2022/08/14 00:57:41;;;;;;;;;;;;;;;23.40;79.55;96355.42;615161;230;66750;-69
2022/08/14 01:00:13;;;;;;;;;;;;;;;23.38;79.56;96353.06;615143;230;66677;-69
2022/08/14 01:02:42;;;;;;;;;;;;;;;23.38;79.56;96339.66;615224;230;62779;-69
2022/08/14 01:05:30;;;;;;;;;;;;;;;23.39;79.55;96337.77;615131;229;74157;-69
2022/08/14 01:07:45;;;;;;;;;;;;;;;23.39;79.53;96337.77;614783;229;64459;-69
2022/08/14 01:10:12;;;;;;;;;;;;;;;23.39;79.57;96335.08;615183;230;65007;-69
2022/08/14 01:12:40;;;;;;;;;;;;;;;23.39;79.58;96340.44;615111;230;67219;-69
2022/08/14 01:15:08;;;;;;;;;;;;;;;23.39;79.60;96343.13;615206;230;66952;-69
2022/08/14 01:23:10;;;;;;;;;;;;;;;23.38;79.61;96326.25;610874;231;64365;-68
2022/08/14 01:25:38;;;;;;;;;;;;;;;23.38;79.57;96328.11;610939;232;62631;-69
2022/08/14 01:28:05;;;;;;;;;;;;;;;23.39;79.59;96324.35;612411;229;66314;-69
2022/08/14 01:30:37;;;;;;;;;;;;;;;23.38;79.61;96325.43;615254;230;66318;-69
2022/08/14 01:33:05;;;;;;;;;;;;;;;23.37;79.61;96324.64;615248;230;64876;-69
2022/08/14 01:35:33;;;;;;;;;;;;;;;23.37;79.64;96330.00;615138;230;66756;-69
2022/08/14 01:38:00;;;;;;;;;;;;;;;23.38;79.63;96325.43;615179;230;64179;-69
2022/08/14 01:40:29;;;;;;;;;;;;;;;23.37;79.67;96324.64;615171;230;64975;-69
2022/08/14 01:42:57;;;;;;;;;;;;;;;23.38;79.63;96317.38;615197;230;66784;-69
2022/08/14 01:45:27;;;;;;;;;;;;;;;23.37;79.64;96316.59;615223;230;64260;-68
2022/08/14 01:47:55;;;;;;;;;;;;;;;23.37;79.64;96315.81;615193;230;64767;-69
2022/08/14 01:50:23;;;;;;;;;;;;;;;23.36;79.63;96317.70;615154;230;66623;-63
2022/08/14 01:52:50;;;;;;;;;;;;;;;23.37;79.64;96321.96;615181;230;63976;-63
2022/08/14 01:55:18;;;;;;;;;;;;;;;23.37;79.59;96313.13;615143;230;62793;-63
2022/08/14 01:57:46;;;;;;;;;;;;;;;23.38;79.57;96314.70;615228;230;64538;-68
2022/08/14 02:00:17;;;;;;;;;;;;;;;23.37;79.60;96316.59;615133;230;64989;-69
2022/08/14 02:02:45;;;;;;;;;;;;;;;23.38;79.60;96314.70;615138;230;65100;-69
2022/08/14 02:05:13;;;;;;;;;;;;;;;23.38;79.61;96309.34;615176;230;64521;-69
2022/08/14 02:07:42;;;;;;;;;;;;;;;23.37;79.61;96297.05;615168;230;64558;-69
2022/08/14 02:10:11;;;;;;;;;;;;;;;23.37;79.58;96295.15;615218;230;63018;-69
2022/08/14 02:12:39;;;;;;;;;;;;;;;23.38;79.60;96301.30;615132;230;66966;-69
2022/08/14 02:15:08;;;;;;;;;;;;;;;23.37;79.63;96295.15;615145;230;64739;-69
2022/08/14 02:17:35;;;;;;;;;;;;;;;23.37;79.61;96292.47;617265;229;63476;-69
2022/08/14 02:20:03;;;;;;;;;;;;;;;23.37;79.64;96286.31;619646;229;64081;-69
2022/08/14 02:22:31;;;;;;;;;;;;;;;23.37;79.63;96291.68;619657;229;66842;-69
2022/08/14 02:24:58;;;;;;;;;;;;;;;23.37;79.61;96291.68;619659;229;62754;-69
2022/08/14 02:27:28;;;;;;;;;;;;;;;23.37;79.62;96292.47;619671;229;64535;-63
2022/08/14 02:29:55;;;;;;;;;;;;;;;23.37;79.62;96291.68;619620;229;66885;-63
2022/08/14 02:32:23;;;;;;;;;;;;;;;23.37;79.64;96291.68;619676;229;62727;-63
2022/08/14 02:34:50;;;;;;;;;;;;;;;23.37;79.62;96289.00;619649;229;65315;-64
2022/08/14 02:37:18;;;;;;;;;;;;;;;23.37;79.64;96283.64;619686;229;64320;-64
2022/08/14 02:39:46;;;;;;;;;;;;;;;23.37;79.61;96289.78;619653;229;62821;-63
2022/08/14 02:42:15;;;;;;;;;;;;;;;23.38;79.68;96287.89;619636;229;66858;-63
2022/08/14 02:44:43;;;;;;;;;;;;;;;23.37;79.67;96286.31;619603;229;66685;-63
2022/08/14 02:47:11;;;;;;;;;;;;;;;23.36;79.64;96282.84;619656;229;64862;-64
2022/08/14 02:49:38;;;;;;;;;;;;;;;23.36;79.65;96285.53;619676;229;64638;-63
2022/08/14 02:52:06;;;;;;;;;;;;;;;23.37;79.67;96286.31;619664;229;64578;-64
2022/08/14 02:54:36;;;;;;;;;;;;;;;23.37;79.62;96292.47;619654;229;63794;-64
2022/08/14 02:57:05;;;;;;;;;;;;;;;23.37;79.66;96280.95;619631;229;66865;-69
2022/08/14 02:59:34;;;;;;;;;;;;;;;23.36;79.67;96280.17;619651;229;66801;-69
2022/08/14 03:02:02;;;;;;;;;;;;;;;23.36;79.65;96274.02;619694;229;65088;-69
2022/08/14 03:04:29;;;;;;;;;;;;;;;23.36;79.63;96282.06;619675;229;66979;-69
2022/08/14 03:06:57;;;;;;;;;;;;;;;23.36;79.61;96280.17;619675;229;66361;-69
2022/08/14 03:09:24;;;;;;;;;;;;;;;23.37;79.67;96281.74;619624;229;64753;-69
2022/08/14 03:11:52;;;;;;;;;;;;;;;23.36;79.64;96279.38;619655;229;66795;-69
2022/08/14 03:14:22;;;;;;;;;;;;;;;23.36;79.65;96282.84;619687;229;66834;-69
2022/08/14 03:16:49;;;;;;;;;;;;;;;23.36;79.62;96284.74;618839;229;62755;-69
2022/08/14 03:19:19;;;;;;;;;;;;;;;23.36;79.62;96288.21;615144;230;66886;-69
2022/08/14 03:21:47;;;;;;;;;;;;;;;23.35;79.64;96283.14;615142;230;64565;-64
2022/08/14 03:24:15;;;;;;;;;;;;;;;23.35;79.65;96280.45;615152;230;63710;-64
2022/08/14 03:26:43;;;;;;;;;;;;;;;23.36;79.65;96282.06;615164;230;64722;-64
2022/08/14 03:29:12;;;;;;;;;;;;;;;23.36;79.65;96282.84;615200;230;66771;-64
2022/08/14 03:31:40;;;;;;;;;;;;;;;23.36;79.63;96282.06;615153;230;64864;-69
2022/08/14 03:34:13;;;;;;;;;;;;;;;23.36;79.61;96290.11;615182;230;64136;-70
2022/08/14 03:36:39;;;;;;;;;;;;;;;23.36;79.61;96282.06;615049;229;64409;-70
2022/08/14 03:39:07;;;;;;;;;;;;;;;23.35;79.61;96288.50;615114;230;65043;-69
2022/08/14 03:41:35;;;;;;;;;;;;;;;23.36;79.65;96284.74;615204;230;64847;-69
2022/08/14 03:44:04;;;;;;;;;;;;;;;23.36;79.65;96290.11;615126;230;66826;-69
2022/08/14 03:46:33;;;;;;;;;;;;;;;23.35;79.66;96283.92;615144;230;65087;-70
2022/08/14 03:49:04;;;;;;;;;;;;;;;23.34;79.65;96284.25;615138;230;66752;-70
2022/08/14 03:51:31;;;;;;;;;;;;;;;23.35;79.66;96277.78;615167;230;66684;-70
2022/08/14 03:53:59;;;;;;;;;;;;;;;23.35;79.62;96277.78;615256;230;64961;-70
2022/08/14 03:56:28;;;;;;;;;;;;;;;23.34;79.62;96282.35;615202;230;66858;-70
2022/08/14 03:58:57;;;;;;;;;;;;;;;23.35;79.62;96283.14;615160;230;66750;-67
2022/08/14 04:01:25;;;;;;;;;;;;;;;23.35;79.65;96291.97;615158;230;62715;-67
2022/08/14 04:03:54;;;;;;;;;;;;;;;23.34;79.64;96281.56;615144;230;66948;-67
2022/08/14 04:06:21;;;;;;;;;;;;;;;23.34;79.68;96276.99;615194;230;64368;-69
2022/08/14 04:08:51;;;;;;;;;;;;;;;23.34;79.68;96293.08;615211;230;62747;-70
2022/08/14 04:11:19;;;;;;;;;;;;;;;23.35;79.66;96288.50;615207;230;66653;-70
2022/08/14 04:13:48;;;;;;;;;;;;;;;23.35;79.70;96296.55;615118;230;66840;-70
2022/08/14 04:16:16;;;;;;;;;;;;;;;23.35;79.67;96288.50;615173;230;65238;-70
2022/08/14 04:18:46;;;;;;;;;;;;;;;23.34;79.68;96290.39;615119;229;67113;-70
2022/08/14 04:21:14;;;;;;;;;;;;;;;23.35;79.70;96283.14;615242;230;66383;-70
2022/08/14 04:23:42;;;;;;;;;;;;;;;23.35;79.68;96291.19;615177;230;62710;-70
2022/08/14 04:26:11;;;;;;;;;;;;;;;23.35;79.71;96288.50;615175;230;64579;-70
2022/08/14 04:28:39;;;;;;;;;;;;;;;23.35;79.75;96286.61;615104;230;66945;-70
2022/08/14 04:31:07;;;;;;;;;;;;;;;23.35;79.72;96291.19;615203;230;64913;-70
2022/08/14 04:33:35;;;;;;;;;;;;;;;23.35;79.76;96288.50;615213;230;66921;-70
2022/08/14 04:36:03;;;;;;;;;;;;;;;23.34;79.76;96289.61;615165;230;66817;-69
2022/08/14 04:44:01;;;;;;;;;;;;;;;23.34;79.73;96301.12;615162;230;66814;-68
2022/08/14 04:46:28;;;;;;;;;;;;;;;23.34;79.76;96297.66;615220;230;64890;-68
2022/08/14 04:48:56;;;;;;;;;;;;;;;23.34;79.79;96297.66;615234;230;66591;-68
2022/08/14 04:51:26;;;;;;;;;;;;;;;23.33;79.78;96296.87;615151;230;66687;-68
2022/08/14 04:53:53;;;;;;;;;;;;;;;23.33;79.82;96288.83;615142;229;69249;-68
2022/08/14 04:56:22;;;;;;;;;;;;;;;23.33;79.79;96296.87;615158;230;67028;-68
2022/08/14 04:58:54;;;;;;;;;;;;;;;23.32;79.83;96297.94;614998;229;64458;-68
2022/08/14 05:01:20;;;;;;;;;;;;;;;23.33;79.82;96299.55;615106;229;67790;-68
2022/08/14 05:03:48;;;;;;;;;;;;;;;23.34;79.82;96303.02;615234;230;66730;-68
2022/08/14 05:06:16;;;;;;;;;;;;;;;23.33;79.79;96296.87;615151;230;66658;-68
2022/08/14 05:08:43;;;;;;;;;;;;;;;23.32;79.81;96303.30;615184;230;65047;-68
2022/08/14 05:11:11;;;;;;;;;;;;;;;23.33;79.81;96296.08;615168;230;65400;-68
2022/08/14 05:13:39;;;;;;;;;;;;;;;23.33;79.84;96302.23;614950;230;64344;-68
2022/08/14 05:16:07;;;;;;;;;;;;;;;23.33;79.83;96301.44;615230;230;65026;-68
2022/08/14 05:18:36;;;;;;;;;;;;;;;23.33;79.81;96302.23;619039;229;64571;-68
2022/08/14 05:21:04;;;;;;;;;;;;;;;23.33;79.81;96301.44;619654;229;66926;-68
2022/08/14 05:23:33;;;;;;;;;;;;;;;23.33;79.81;96302.23;619662;229;64969;-68
2022/08/14 05:26:16;;;;;;;;;;;;;;;23.33;79.81;96304.91;619636;229;66843;-68
2022/08/14 05:28:44;;;;;;;;;;;;;;;23.33;79.84;96312.16;619794;228;66866;-69
2022/08/14 05:31:13;;;;;;;;;;;;;;;23.33;79.84;96301.44;619713;229;64901;-69
2022/08/14 05:33:40;;;;;;;;;;;;;;;23.32;79.85;96300.62;619684;229;66897;-69
2022/08/14 05:36:10;;;;;;;;;;;;;;;23.32;79.89;96299.84;619731;229;63839;-69
2022/08/14 05:38:39;;;;;;;;;;;;;;;23.33;79.86;96304.13;619434;229;64699;-69
2022/08/14 05:41:08;;;;;;;;;;;;;;;23.33;79.86;96301.44;619655;229;64368;-63
2022/08/14 05:43:39;;;;;;;;;;;;;;;23.32;79.88;96302.52;619611;228;64653;-63
2022/08/14 05:46:07;;;;;;;;;;;;;;;23.32;79.84;96307.88;619919;226;63182;-63
2022/08/14 05:48:36;;;;;;;;;;;;;;;23.32;79.87;96313.24;626027;226;66701;-63
2022/08/14 05:51:04;;;;;;;;;;;;;;;23.32;79.86;96307.88;626779;226;66583;-68
2022/08/14 05:53:31;;;;;;;;;;;;;;;23.32;79.85;96305.20;626808;226;65004;-69
2022/08/14 05:55:59;;;;;;;;;;;;;;;23.32;79.86;96315.92;626856;226;67420;-69
2022/08/14 05:58:26;;;;;;;;;;;;;;;23.32;79.86;96318.60;626884;226;66397;-69
2022/08/14 06:00:56;;;;;;;;;;;;;;;23.31;79.90;96317.81;626811;226;65141;-69
2022/08/14 06:03:23;;;;;;;;;;;;;;;23.32;79.86;96315.92;626817;226;66418;-69
2022/08/14 06:05:52;;;;;;;;;;;;;;;23.31;79.90;96304.41;626836;226;66829;-69
2022/08/14 06:08:28;;;;;;;;;;;;;;;23.32;79.91;96318.60;626749;226;62796;-69
2022/08/14 06:11:01;;;;;;;;;;;;;;;23.32;79.88;96315.92;626444;226;64934;-69
2022/08/14 06:13:26;;;;;;;;;;;;;;;23.32;79.71;96307.88;626608;226;65478;-69
2022/08/14 06:15:53;;;;;;;;;;;;;;;23.31;78.99;96303.63;626800;226;65189;-69
2022/08/14 06:18:21;;;;;;;;;;;;;;;23.31;79.55;96303.63;623121;226;66936;-69
2022/08/14 06:20:48;;;;;;;;;;;;;;;23.32;79.67;96299.84;622206;228;66605;-69
2022/08/14 06:23:16;;;;;;;;;;;;;;;23.32;79.76;96294.48;622236;228;66542;-68
2022/08/14 06:25:44;;;;;;;;;;;;;;;23.32;79.84;96294.48;622236;228;64204;-69
2022/08/14 06:28:18;;;;;;;;;;;;;;;23.33;79.87;96286.14;622224;228;66922;-69
2022/08/14 06:30:46;;;;;;;;;;;;;;;23.33;79.90;96288.03;622195;228;65159;-68
2022/08/14 06:33:14;;;;;;;;;;;;;;;23.34;79.92;96286.93;622199;228;66766;-68
2022/08/14 06:35:42;;;;;;;;;;;;;;;23.33;79.88;96286.14;622148;228;67651;-68
2022/08/14 06:38:11;;;;;;;;;;;;;;;23.34;79.91;96293.08;622243;228;65839;-68
2022/08/14 06:40:39;;;;;;;;;;;;;;;23.34;79.89;96293.08;622155;227;66958;-68
2022/08/14 06:43:08;;;;;;;;;;;;;;;23.36;79.90;96295.47;622215;228;64272;-62
2022/08/14 06:45:36;;;;;;;;;;;;;;;23.35;79.83;96288.50;622195;228;62981;-62
2022/08/14 06:48:04;;;;;;;;;;;;;;;23.36;79.86;96292.78;622165;228;64408;-62
2022/08/14 06:50:31;;;;;;;;;;;;;;;23.36;79.80;96290.11;622256;228;66562;-62
2022/08/14 06:52:59;;;;;;;;;;;;;;;23.37;79.77;96299.73;622210;228;64975;-63
2022/08/14 06:55:27;;;;;;;;;;;;;;;23.36;79.80;96298.94;622178;228;66910;-63
2022/08/14 06:57:55;;;;;;;;;;;;;;;23.37;79.75;96299.73;622162;228;66915;-62
2022/08/14 07:00:24;;;;;;;;;;;;;;;23.36;79.72;96301.62;622160;228;64966;-62
2022/08/14 07:05:49;;;;;;;;;;;;;;;23.37;79.73;96302.41;622265;228;66753;-63
2022/08/14 07:08:19;;;;;;;;;;;;;;;23.37;79.71;96297.83;622201;228;65159;-63
2022/08/14 07:10:47;;;;;;;;;;;;;;;23.37;79.70;96303.19;622180;228;67284;-63
2022/08/14 07:13:17;;;;;;;;;;;;;;;23.38;79.72;96295.94;622184;228;64470;-63
2022/08/14 07:15:49;;;;;;;;;;;;;;;23.38;79.72;96303.98;622208;228;64960;-63
2022/08/14 07:18:21;;;;;;;;;;;;;;;23.37;79.73;96308.55;622208;226;66746;-63
2022/08/14 07:20:49;;;;;;;;;;;;;;;23.37;79.71;96324.64;622237;228;66635;-63
2022/08/14 07:23:16;;;;;;;;;;;;;;;23.39;79.75;96310.95;622160;228;65066;-63
2022/08/14 07:25:45;;;;;;;;;;;;;;;23.38;79.75;96304.80;622164;228;67028;-62
2022/08/14 07:28:14;;;;;;;;;;;;;;;23.38;79.74;96309.34;622197;228;64484;-63
2022/08/14 07:30:42;;;;;;;;;;;;;;;23.38;79.68;96312.02;622175;228;62743;-63
2022/08/14 07:33:10;;;;;;;;;;;;;;;23.37;79.72;96313.92;622213;228;66939;-63
2022/08/14 07:35:38;;;;;;;;;;;;;;;23.38;79.70;96328.11;622153;228;66659;-63
2022/08/14 07:38:06;;;;;;;;;;;;;;;23.38;79.65;96331.61;622166;228;64884;-63
2022/08/14 07:40:34;;;;;;;;;;;;;;;23.39;79.61;96329.72;622171;228;66917;-63
2022/08/14 07:43:01;;;;;;;;;;;;;;;23.39;79.59;96329.72;622189;228;66893;-63
2022/08/14 07:45:29;;;;;;;;;;;;;;;23.39;79.61;96335.86;622236;228;65218;-63
2022/08/14 07:47:56;;;;;;;;;;;;;;;23.39;79.58;96335.86;622172;228;66775;-63
2022/08/14 07:50:24;;;;;;;;;;;;;;;23.39;79.55;96337.77;622191;228;64671;-63
2022/08/14 07:52:52;;;;;;;;;;;;;;;23.39;79.56;96335.08;622155;228;62803;-63
2022/08/14 07:55:21;;;;;;;;;;;;;;;23.40;79.54;96333.97;622182;228;64655;-63
2022/08/14 07:57:50;;;;;;;;;;;;;;;23.39;79.51;96327.03;622247;228;64236;-63
2022/08/14 08:00:19;;;;;;;;;;;;;;;23.40;79.51;96340.13;622102;228;65050;-63
2022/08/14 08:02:48;;;;;;;;;;;;;;;23.40;79.52;96342.02;622162;228;66891;-63
2022/08/14 08:05:16;;;;;;;;;;;;;;;23.39;79.51;96337.77;622181;228;67376;-69
2022/08/14 08:07:44;;;;;;;;;;;;;;;23.40;79.52;96333.97;622188;228;62640;-69
2022/08/14 08:10:30;;;;;;;;;;;;;;;23.40;79.50;96337.44;622216;228;64475;-69
2022/08/14 08:13:02;;;;;;;;;;;;;;;23.40;79.48;96331.29;622209;228;66885;-68
2022/08/14 08:15:31;;;;;;;;;;;;;;;23.39;79.48;96332.40;622142;228;62728;-68
2022/08/14 08:18:03;;;;;;;;;;;;;;;23.40;79.49;96344.70;625056;226;67645;-62
2022/08/14 08:20:30;;;;;;;;;;;;;;;23.40;79.50;96352.74;626694;226;64777;-63
2022/08/14 08:22:58;;;;;;;;;;;;;;;23.40;79.54;96355.42;626787;226;62674;-63
2022/08/14 08:25:27;;;;;;;;;;;;;;;23.40;79.50;96350.06;626841;226;64474;-63
2022/08/14 08:27:55;;;;;;;;;;;;;;;23.40;79.50;96350.06;626845;226;67027;-63
2022/08/14 08:30:23;;;;;;;;;;;;;;;23.40;79.51;96350.06;626760;226;65045;-63
2022/08/14 08:32:52;;;;;;;;;;;;;;;23.40;79.47;96350.84;626816;226;66607;-63
2022/08/14 08:35:20;;;;;;;;;;;;;;;23.40;79.47;96350.84;626777;226;66679;-63
2022/08/14 08:37:48;;;;;;;;;;;;;;;23.42;79.47;96347.88;626760;226;64935;-63
2022/08/14 08:40:25;;;;;;;;;;;;;;;23.41;79.46;96348.98;626859;226;64713;-64
2022/08/14 08:42:53;;;;;;;;;;;;;;;23.40;79.46;96353.53;626794;226;66734;-63
2022/08/14 08:45:22;;;;;;;;;;;;;;;23.41;79.47;96348.98;626790;226;64925;-63
2022/08/14 08:47:50;;;;;;;;;;;;;;;23.40;79.47;96339.33;626824;226;66685;-69
2022/08/14 08:50:19;;;;;;;;;;;;;;;23.40;79.40;96345.48;626809;226;64627;-69
2022/08/14 08:52:49;;;;;;;;;;;;;;;23.40;79.36;96350.84;626889;226;64871;-68
2022/08/14 08:55:18;;;;;;;;;;;;;;;23.40;79.37;96345.48;626494;226;66789;-68
2022/08/14 08:57:45;;;;;;;;;;;;;;;23.41;79.36;96351.66;626562;226;64399;-68
2022/08/14 09:00:14;;;;;;;;;;;;;;;23.41;79.37;96346.30;626822;226;62833;-68
2022/08/14 09:03:02;;;;;;;;;;;;;;;23.40;79.34;96347.38;626799;226;64766;-68
2022/08/14 09:05:30;;;;;;;;;;;;;;;23.41;79.41;96344.41;626781;226;64456;-69
2022/08/14 09:08:10;;;;;;;;;;;;;;;23.40;79.40;96350.84;626918;226;45020;-69
2022/08/14 09:10:38;;;;;;;;;;;;;;;23.40;79.39;96347.38;626834;226;66763;-68
2022/08/14 09:13:07;;;;;;;;;;;;;;;23.40;79.41;96337.44;626822;226;66860;-68
2022/08/14 09:15:34;;;;;;;;;;;;;;;23.40;79.50;96337.44;626698;226;64880;-68
2022/08/14 09:18:02;;;;;;;;;;;;;;;23.41;79.45;96335.58;623664;226;66760;-62
2022/08/14 09:20:30;;;;;;;;;;;;;;;23.40;79.46;96328.61;622072;228;64162;-62
2022/08/14 09:22:59;;;;;;;;;;;;;;;23.41;79.47;96327.53;622135;228;65277;-62
2022/08/14 09:25:26;;;;;;;;;;;;;;;23.41;79.47;96331.00;622175;228;66977;-62
2022/08/14 09:27:54;;;;;;;;;;;;;;;23.41;79.47;96324.85;621772;228;67036;-63
2022/08/14 09:30:22;;;;;;;;;;;;;;;23.41;79.47;96331.00;621669;228;65043;-62
2022/08/14 09:32:52;;;;;;;;;;;;;;;23.41;79.46;96332.89;622210;228;66909;-63
2022/08/14 09:35:26;;;;;;;;;;;;;;;23.40;79.49;96328.61;622226;228;64262;-63
2022/08/14 09:38:01;;;;;;;;;;;;;;;23.42;79.49;96342.52;622056;227;62755;-63
2022/08/14 09:40:30;;;;;;;;;;;;;;;23.41;79.48;96338.25;622133;227;66784;-62
2022/08/14 09:43:05;;;;;;;;;;;;;;;23.42;79.47;96339.83;622251;228;64278;-63
2022/08/14 09:45:46;;;;;;;;;;;;;;;23.41;79.45;96336.36;622112;227;63023;-63
2022/08/14 09:48:16;;;;;;;;;;;;;;;23.41;79.51;96344.41;622216;228;66452;-63
2022/08/14 09:50:46;;;;;;;;;;;;;;;23.40;79.48;96353.53;622270;228;64318;-62
2022/08/14 09:53:15;;;;;;;;;;;;;;;23.41;79.48;96357.03;621987;227;61305;-62
2022/08/14 09:55:42;;;;;;;;;;;;;;;23.41;79.53;96367.75;622200;228;64415;-63
2022/08/14 09:58:14;;;;;;;;;;;;;;;23.41;79.54;96359.70;622215;228;64087;-63
2022/08/14 10:00:46;;;;;;;;;;;;;;;23.41;79.53;96362.39;622196;228;64850;-63
2022/08/14 10:03:15;;;;;;;;;;;;;;;23.40;79.45;96355.42;622209;228;66610;-63
2022/08/14 10:05:45;;;;;;;;;;;;;;;23.41;79.45;96357.03;622152;227;47567;-63
2022/08/14 10:08:17;;;;;;;;;;;;;;;23.41;79.40;96357.81;622176;228;64865;-63
2022/08/14 10:10:45;;;;;;;;;;;;;;;23.41;79.47;96340.94;622182;228;66803;-63
2022/08/14 10:13:22;;;;;;;;;;;;;;;23.41;79.47;96319.48;622118;227;66882;-63
2022/08/14 10:15:50;;;;;;;;;;;;;;;23.41;79.41;96314.13;622198;228;62980;-63
2022/08/14 10:18:20;;;;;;;;;;;;;;;23.41;79.44;96331.00;622130;226;66758;-63
2022/08/14 10:20:56;;;;;;;;;;;;;;;23.41;79.46;96330.21;622237;228;64988;-63
2022/08/14 10:23:25;;;;;;;;;;;;;;;23.40;79.42;96307.95;622202;228;65130;-63
2022/08/14 10:25:54;;;;;;;;;;;;;;;23.41;79.41;96306.87;622209;228;66756;-63
2022/08/14 10:28:23;;;;;;;;;;;;;;;23.41;79.41;96300.72;622180;227;70010;-63
2022/08/14 10:30:54;;;;;;;;;;;;;;;23.42;79.39;96299.61;622216;228;62784;-63
2022/08/14 10:33:28;;;;;;;;;;;;;;;23.40;79.34;96299.90;622188;228;67091;-63
2022/08/14 10:35:56;;;;;;;;;;;;;;;23.41;79.33;96292.67;622249;228;66265;-63
2022/08/14 10:38:31;;;;;;;;;;;;;;;23.41;79.35;96293.46;622180;228;62637;-63
2022/08/14 10:41:15;;;;;;;;;;;;;;;23.41;79.33;96292.67;622162;228;64735;-63
2022/08/14 10:43:43;;;;;;;;;;;;;;;23.42;79.35;96283.52;622173;228;64955;-62
2022/08/14 10:46:15;;;;;;;;;;;;;;;23.42;79.35;96286.20;622194;228;65001;-63
2022/08/14 10:48:44;;;;;;;;;;;;;;;23.41;79.39;96279.27;622208;228;66769;-68
2022/08/14 10:51:12;;;;;;;;;;;;;;;23.41;79.35;96280.05;621913;227;66654;-68
2022/08/14 10:53:39;;;;;;;;;;;;;;;23.41;79.37;96284.62;622181;228;62937;-68
2022/08/14 10:56:12;;;;;;;;;;;;;;;23.41;79.38;96281.95;622169;228;64561;-68
2022/08/14 10:58:40;;;;;;;;;;;;;;;23.41;79.33;96279.27;622170;228;66637;-68
2022/08/14 11:01:08;;;;;;;;;;;;;;;23.41;79.36;96272.01;622206;228;64884;-68
2022/08/14 11:03:40;;;;;;;;;;;;;;;23.41;79.37;96274.69;622257;228;64399;-68
2022/08/14 11:06:18;;;;;;;;;;;;;;;23.41;79.36;96272.01;622194;228;66696;-68
2022/08/14 11:08:45;;;;;;;;;;;;;;;23.42;79.35;96280.84;622151;227;65130;-68
2022/08/14 11:11:13;;;;;;;;;;;;;;;23.41;79.31;96268.54;622170;228;64891;-68
2022/08/14 11:13:45;;;;;;;;;;;;;;;23.42;79.29;96268.22;622205;228;66673;-68
2022/08/14 11:16:14;;;;;;;;;;;;;;;23.41;79.27;96266.64;622188;228;64953;-68
2022/08/14 11:18:46;;;;;;;;;;;;;;;23.42;79.28;96268.22;626490;226;64553;-68
2022/08/14 11:21:16;;;;;;;;;;;;;;;23.43;79.24;96271.69;626788;226;69139;-68
2022/08/14 11:23:44;;;;;;;;;;;;;;;23.42;79.25;96272.80;626565;226;64876;-68
2022/08/14 11:26:13;;;;;;;;;;;;;;;23.42;79.23;96267.44;626811;226;66888;-68
2022/08/14 11:28:45;;;;;;;;;;;;;;;23.42;79.22;96268.22;626818;226;64359;-68
2022/08/14 11:31:13;;;;;;;;;;;;;;;23.41;79.20;96266.64;626791;226;63175;-68
2022/08/14 11:33:41;;;;;;;;;;;;;;;23.43;79.21;96269.01;626788;226;64762;-68
2022/08/14 11:36:09;;;;;;;;;;;;;;;23.42;79.18;96276.27;626838;226;66675;-68
2022/08/14 11:38:41;;;;;;;;;;;;;;;23.43;79.20;96269.01;626776;226;64907;-68
2022/08/14 11:41:10;;;;;;;;;;;;;;;23.42;79.18;96270.12;626805;226;66909;-68
2022/08/14 11:43:41;;;;;;;;;;;;;;;23.43;79.17;96275.16;626793;226;64453;-68
2022/08/14 11:46:09;;;;;;;;;;;;;;;23.43;79.17;96274.37;626804;226;64934;-68
2022/08/14 11:48:46;;;;;;;;;;;;;;;23.42;79.16;96268.22;626561;226;48236;-68
2022/08/14 11:51:19;;;;;;;;;;;;;;;23.43;79.20;96263.64;626803;226;64244;-68
2022/08/14 11:53:45;;;;;;;;;;;;;;;23.43;79.13;96266.33;626602;226;63090;-68
2022/08/14 11:56:13;;;;;;;;;;;;;;;23.43;79.17;96263.64;626616;226;64455;-68
2022/08/14 11:58:40;;;;;;;;;;;;;;;23.42;79.17;96262.86;626783;226;64922;-69
2022/08/14 12:01:09;;;;;;;;;;;;;;;23.43;79.16;96260.96;626820;226;62834;-70
2022/08/14 12:03:44;;;;;;;;;;;;;;;23.42;79.16;96254.03;626780;226;67001;-69
2022/08/14 12:06:13;;;;;;;;;;;;;;;23.42;79.19;96257.49;626790;226;64612;-69
2022/08/14 12:08:41;;;;;;;;;;;;;;;23.42;79.15;96241.41;626776;226;63151;-69
2022/08/14 12:11:12;;;;;;;;;;;;;;;23.43;79.22;96244.88;626782;226;66941;-69
2022/08/14 12:13:40;;;;;;;;;;;;;;;23.42;79.17;96244.09;626807;226;65402;-68
2022/08/14 12:16:09;;;;;;;;;;;;;;;23.43;79.16;96236.83;626884;226;65066;-68
2022/08/14 12:18:40;;;;;;;;;;;;;;;23.43;79.18;96226.10;626770;226;66821;-68
2022/08/14 12:21:12;;;;;;;;;;;;;;;23.43;79.18;96226.10;626835;226;64547;-69
2022/08/14 12:23:40;;;;;;;;;;;;;;;23.43;79.15;96236.83;626755;226;66747;-69
2022/08/14 12:26:09;;;;;;;;;;;;;;;23.42;79.14;96240.62;626820;226;67212;-69
2022/08/14 12:28:41;;;;;;;;;;;;;;;23.43;79.13;96252.92;626888;226;64360;-69
2022/08/14 12:31:15;;;;;;;;;;;;;;;23.43;79.12;96255.59;626464;226;62828;-69
2022/08/14 12:33:43;;;;;;;;;;;;;;;23.42;79.15;96254.81;626826;226;67025;-69
2022/08/14 12:36:12;;;;;;;;;;;;;;;23.44;79.10;96259.88;626821;226;66840;-70
2022/08/14 12:38:41;;;;;;;;;;;;;;;23.43;79.16;96259.06;626463;226;62605;-70
2022/08/14 12:41:13;;;;;;;;;;;;;;;23.43;79.15;96255.59;626848;226;66787;-70
2022/08/14 12:43:55;;;;;;;;;;;;;;;23.43;79.16;96260.96;626877;226;66814;-70
2022/08/14 12:46:24;;;;;;;;;;;;;;;23.43;79.12;96263.64;626806;226;62990;-69
2022/08/14 12:48:52;;;;;;;;;;;;;;;23.43;79.13;96269.01;626800;226;64646;-69
2022/08/14 12:51:21;;;;;;;;;;;;;;;23.43;79.10;96275.16;626843;226;66765;-69
2022/08/14 12:53:49;;;;;;;;;;;;;;;23.43;79.17;96285.88;626803;226;65053;-69
2022/08/14 12:56:18;;;;;;;;;;;;;;;23.43;79.12;96282.41;626861;226;64552;-69
2022/08/14 12:58:49;;;;;;;;;;;;;;;23.43;79.16;96277.05;626805;226;66832;-69
2022/08/14 13:01:21;;;;;;;;;;;;;;;23.43;79.16;96280.52;626802;226;65206;-70
2022/08/14 13:03:49;;;;;;;;;;;;;;;23.44;79.14;96292.06;626817;226;64778;-69
2022/08/14 13:06:18;;;;;;;;;;;;;;;23.43;79.18;96293.92;626832;226;66590;-69
2022/08/14 13:08:47;;;;;;;;;;;;;;;23.44;79.15;96294.74;626862;226;65141;-70
2022/08/14 13:11:17;;;;;;;;;;;;;;;23.44;79.18;96300.89;626807;226;66890;-69